Ana Sayfa
METAR-TAF:

METAR-TAF

Havaalanları :

Kerpe, Yunanistan

Enlem: 35-24-51N, Boylam: 027-08-54E, yükseklik: 6 m

Güncel hava durumu gözlemi

Rapor saat 13:50 UTC de 43 dakika önce yapıldı.
Rüzgar batı/güneybatıdan 7 kt
Sıcaklık 18°C
Nem 64%
Basınç 1009 hPa
Görüş mesafesi 10 km veya daha fazla
2500 ft yükseklikte parçalı bulutlu

METAR: LGKP 231350Z 24007KT 9999 SCT025 18/11 Q1009

Saat: 16:33 (14:33 UTC)

Tahmin

Rapor saat 11:00 UTC de 3 saat ve 33 dakika önce yapıldı.
Ayın 23'si saat 12 UTC'den ayın 23'si saat 21 UTC'ye kadar geçerli Tahmin
Rüzgar doğu/güneydoğudan 6 kt
Görüş mesafesi 10 km veya daha fazla
2000 ft yükseklikte parçalı bulutlu
Olasılık 30% :
Geçici
ayın 23'si saat 12 UTC'den ayın 23'si saat 14 UTC'ye kadar
Görüş mesafesi: 6000 m
2000 ft yükseklikte parçalı çok bulutlu
yağmur

TAF: LGKP 231100Z 2312/2321 12006KT 9999 SCT020 PROB30 TEMPO 2312/2314 6000 RA BKN020

4.000'den fazla havaalanı için hava durumu gözlemleri ve tahminleri (METAR ve TAF raporları).

Kullanılabilir istasyonlar harita üzerinde sarı ve kırmızı noktalarla gösterilir.

İstasyonun adını görmek için fareyi noktanın üzerinde gezdirin.

Sonrasında hava gözlem ve tahminlerini görmek için tıklayın.

Haritayı değiştirmek için: yaklaştırmak için siyah artı işaretli yeşil düğmeye ve uzaklaştırmak için de eksi işaretli düğmeye hızla tıklayın; bitişik haritalar için yeşil okları kullanın.


METAR-TAF: